»·PEaware :: SWA2055 KBLI-KOAK

SWA2055 :: KBLI-KOAK

FLIGHT INFORMATION

Flight Status: Arrived
Operator:
Southwest Airlines
More flights by this operator :: More flights under this callsign
Pilot: Daniel W. (24238)
Aircraft: BOEING 737-700
(B737)
More flights by this aircraft type
Origin: KBLI Bellingham Intl
United States
Destination: KOAK Metro Oakland Intl
United States
More flights between these airports :: More routes between these airports
Route: KIENO6 CVV HAROB HISKU Q5 HUPTU SPAMY WNDSR2
File this flight plan on PilotEdge
Remarks: PBN / A1D1O1S2T1 NAV / RNVD1E1A1 RNP10 DAT / 1FANSE2PDC REG / N248WN EET / KZOA0103 CODE / A24FB8
Altitude:
(Current/Filed)
39,000ft
Speed:
(Current/Filed)
457kts
Departed: 02-Mar-23 05:49 PM
Arrived: 02-Mar-23 07:28 PM
Distance/Time
Traveled:
665nm/1:39
Distance/Time
To Go:
Arrived

Flight Plot

Page will automatically refresh every two minutes.

Flight plan parsing failed; only flown route is shown


Map Options




Map Legend


Flown Route
Filed Route
Departure Airport
Arrival Airport
Navaid (VOR, NDB)
Fix

Horizontal Profiles

Position Reports

Time Latitude Longitude Heading Altitude Ground
Speed
02-Mar-23 17:09 48.794786 -122.533295 54 174ft 0kts
02-Mar-23 17:10 48.794786 -122.533295 54 174ft 0kts
02-Mar-23 17:11 48.794786 -122.533295 54 174ft 0kts
02-Mar-23 17:12 48.794786 -122.533295 54 174ft 0kts
02-Mar-23 17:13 48.794786 -122.533295 54 174ft 0kts
02-Mar-23 17:14 48.794786 -122.533295 54 174ft 0kts
02-Mar-23 17:15 48.794786 -122.533295 54 174ft 0kts
02-Mar-23 17:16 48.794786 -122.533295 54 174ft 0kts
02-Mar-23 17:17 48.794786 -122.533295 54 174ft 0kts
02-Mar-23 17:18 48.794786 -122.533295 54 174ft 0kts
02-Mar-23 17:19 48.794786 -122.533295 54 174ft 0kts
02-Mar-23 17:20 48.794786 -122.533295 54 174ft 0kts
02-Mar-23 17:21 48.794786 -122.533295 54 174ft 0kts
02-Mar-23 17:22 48.794786 -122.533295 54 174ft 0kts
02-Mar-23 17:23 48.794786 -122.533295 54 174ft 0kts
02-Mar-23 17:24 48.794786 -122.533295 54 174ft 0kts
02-Mar-23 17:25 48.794786 -122.533295 54 174ft 0kts
02-Mar-23 17:26 48.794786 -122.533295 54 174ft 0kts
02-Mar-23 17:27 48.794786 -122.533295 54 174ft 0kts
02-Mar-23 17:28 48.794786 -122.533295 54 174ft 0kts
02-Mar-23 17:30 48.794786 -122.533295 54 174ft 0kts
02-Mar-23 17:31 48.794786 -122.533295 54 174ft 0kts
02-Mar-23 17:32 48.794786 -122.533295 54 174ft 0kts
02-Mar-23 17:33 48.794786 -122.533295 54 174ft 0kts
02-Mar-23 17:34 48.794786 -122.533295 54 174ft 0kts
02-Mar-23 17:35 48.794786 -122.533295 54 174ft 0kts
02-Mar-23 17:36 48.794786 -122.533295 54 174ft 0kts
02-Mar-23 17:37 48.794786 -122.533295 54 174ft 0kts
02-Mar-23 17:38 48.794786 -122.533295 54 174ft 0kts
02-Mar-23 17:39 48.794786 -122.533295 54 174ft 0kts
02-Mar-23 17:40 48.794786 -122.533295 54 174ft 0kts
02-Mar-23 17:41 48.794786 -122.533295 54 174ft 0kts
02-Mar-23 17:42 48.794416 -122.533819 8 174ft 0kts
02-Mar-23 17:43 48.794411 -122.533820 7 174ft 0kts
02-Mar-23 17:44 48.794411 -122.533820 7 174ft 0kts
02-Mar-23 17:45 48.794411 -122.533820 7 174ft 0kts
02-Mar-23 17:46 48.796119 -122.535111 358 173ft 12kts
02-Mar-23 17:47 48.799461 -122.535861 0 172ft 12kts
02-Mar-23 17:48 48.801781 -122.536431 268 171ft 5kts
02-Mar-23 17:49 48.799826 -122.537558 179 173ft 60kts
02-Mar-23 17:50 48.761545 -122.548229 214 2386ft 183kts
02-Mar-23 17:51 48.702947 -122.584356 183 5682ft 260kts
02-Mar-23 17:52 48.629018 -122.588546 199 9960ft 269kts
02-Mar-23 17:53 48.546204 -122.619583 198 12539ft 332kts
02-Mar-23 17:54 48.454220 -122.651726 198 16167ft 349kts
02-Mar-23 17:55 48.356961 -122.685415 199 19401ft 367kts
02-Mar-23 17:56 48.255550 -122.720405 201 22330ft 381kts
02-Mar-23 17:57 48.149694 -122.754914 200 24873ft 394kts
02-Mar-23 17:57 48.059494 -122.783712 201 26659ft 403kts
02-Mar-23 17:59 47.929025 -122.825376 201 28943ft 417kts
02-Mar-23 18:00 47.814019 -122.861951 201 30485ft 429kts
02-Mar-23 18:01 47.695903 -122.899242 201 31624ft 435kts
02-Mar-23 18:01 47.596618 -122.930549 201 32665ft 441kts
02-Mar-23 18:02 47.475830 -122.968457 201 33952ft 446kts
02-Mar-23 18:03 47.354157 -123.006429 200 35022ft 448kts
02-Mar-23 18:05 47.209555 -123.040998 187 36229ft 465kts
02-Mar-23 18:06 47.080343 -123.035245 186 37283ft 465kts
02-Mar-23 18:06 46.972604 -123.030986 186 38066ft 466kts
02-Mar-23 18:07 46.842750 -123.026232 186 38904ft 467kts
02-Mar-23 18:08 46.713112 -123.021503 185 39119ft 466kts
02-Mar-23 18:09 46.583526 -123.016771 185 39125ft 465kts
02-Mar-23 18:10 46.454310 -123.012118 185 39121ft 466kts
02-Mar-23 18:11 46.324294 -123.007444 185 39147ft 467kts
02-Mar-23 18:12 46.194416 -123.002763 185 39166ft 466kts
02-Mar-23 18:13 46.064787 -122.998155 185 39160ft 467kts
02-Mar-23 18:14 45.934675 -122.993533 185 39161ft 467kts
02-Mar-23 18:15 45.804267 -122.988934 185 39167ft 468kts
02-Mar-23 18:16 45.674019 -122.984343 185 39161ft 468kts
02-Mar-23 18:17 45.543741 -122.979791 185 39147ft 469kts
02-Mar-23 18:18 45.413484 -122.975251 185 39143ft 468kts
02-Mar-23 18:19 45.283008 -122.970725 186 39168ft 468kts
02-Mar-23 18:20 45.153067 -122.966236 186 39164ft 467kts
02-Mar-23 18:21 45.023358 -122.961781 186 39176ft 467kts
02-Mar-23 18:22 44.893546 -122.957344 186 39181ft 466kts
02-Mar-23 18:23 44.763721 -122.952923 186 39178ft 467kts
02-Mar-23 18:24 44.633519 -122.948507 186 39179ft 467kts
02-Mar-23 18:25 44.503775 -122.944130 186 39204ft 468kts
02-Mar-23 18:26 44.373686 -122.940098 186 39213ft 468kts
02-Mar-23 18:27 44.243036 -122.936149 186 39208ft 470kts
02-Mar-23 18:28 44.112522 -122.932169 186 39206ft 469kts
02-Mar-23 18:29 43.982381 -122.928232 186 39214ft 468kts
02-Mar-23 18:30 43.852145 -122.924311 186 39219ft 468kts
02-Mar-23 18:31 43.722167 -122.920390 186 39218ft 466kts
02-Mar-23 18:32 43.592233 -122.916529 186 39215ft 466kts
02-Mar-23 18:33 43.462808 -122.912698 186 39213ft 468kts
02-Mar-23 18:34 43.332748 -122.908841 186 39236ft 468kts
02-Mar-23 18:35 43.202637 -122.904978 186 39223ft 467kts
02-Mar-23 18:36 43.072448 -122.901164 187 39234ft 467kts
02-Mar-23 18:37 42.942728 -122.897376 187 39249ft 467kts
02-Mar-23 18:38 42.812607 -122.893587 187 39248ft 468kts
02-Mar-23 18:39 42.682332 -122.889804 187 39225ft 467kts
02-Mar-23 18:40 42.552937 -122.886066 187 39226ft 466kts
02-Mar-23 18:41 42.423096 -122.882315 187 39216ft 467kts
02-Mar-23 18:42 42.293256 -122.878517 188 39214ft 467kts
02-Mar-23 18:43 42.163473 -122.874690 188 39226ft 466kts
02-Mar-23 18:44 42.034584 -122.870919 188 39227ft 461kts
02-Mar-23 18:45 41.905214 -122.867288 188 39201ft 466kts
02-Mar-23 18:46 41.774799 -122.863536 188 39174ft 470kts
02-Mar-23 18:47 41.644534 -122.859733 188 39189ft 466kts
02-Mar-23 18:48 41.515149 -122.856070 189 39189ft 465kts
02-Mar-23 18:49 41.385749 -122.852402 189 39195ft 463kts
02-Mar-23 18:50 41.257618 -122.846892 188 39182ft 463kts
02-Mar-23 18:51 41.129200 -122.838687 188 39203ft 461kts
02-Mar-23 18:52 41.001783 -122.830995 188 39197ft 455kts
02-Mar-23 18:53 40.875932 -122.823602 188 39169ft 455kts
02-Mar-23 18:54 40.748993 -122.816185 188 39158ft 458kts
02-Mar-23 18:55 40.621591 -122.808669 188 39129ft 458kts
02-Mar-23 18:56 40.493947 -122.801214 187 39147ft 459kts
02-Mar-23 18:57 40.366764 -122.793764 187 39133ft 456kts
02-Mar-23 18:58 40.240151 -122.786425 187 39121ft 455kts
02-Mar-23 18:59 40.114283 -122.779120 188 39106ft 450kts
02-Mar-23 19:00 39.989107 -122.771903 189 39160ft 450kts
02-Mar-23 19:01 39.863208 -122.764767 189 38906ft 460kts
02-Mar-23 19:02 39.735801 -122.757363 189 37161ft 452kts
02-Mar-23 19:03 39.611122 -122.750320 190 34414ft 451kts
02-Mar-23 19:04 39.483990 -122.735993 175 31465ft 475kts
02-Mar-23 19:05 39.360100 -122.672340 167 28984ft 468kts
02-Mar-23 19:06 39.241193 -122.611486 167 26646ft 454kts
02-Mar-23 19:07 39.125417 -122.579739 184 24744ft 411kts
02-Mar-23 19:08 39.012549 -122.562700 177 22645ft 407kts
02-Mar-23 19:09 38.904237 -122.534323 176 20956ft 392kts
02-Mar-23 19:10 38.797642 -122.507597 175 19304ft 389kts
02-Mar-23 19:11 38.691998 -122.481266 174 17460ft 379kts
02-Mar-23 19:12 38.591081 -122.464357 179 15823ft 359kts
02-Mar-23 19:13 38.490781 -122.449628 178 14286ft 365kts
02-Mar-23 19:14 38.392510 -122.434638 177 12721ft 347kts
02-Mar-23 19:15 38.297630 -122.420278 177 11267ft 342kts
02-Mar-23 19:16 38.205748 -122.406285 176 9873ft 318kts
02-Mar-23 19:17 38.124660 -122.393840 176 9073ft 283kts
02-Mar-23 19:18 38.046963 -122.381987 176 7609ft 279kts
02-Mar-23 19:19 37.979119 -122.339932 142 6632ft 278kts
02-Mar-23 19:20 37.918102 -122.280971 143 5647ft 268kts
02-Mar-23 19:21 37.860202 -122.225229 144 4683ft 251kts
02-Mar-23 19:22 37.805640 -122.178613 147 3613ft 226kts
02-Mar-23 19:23 37.754562 -122.144705 182 2599ft 192kts
02-Mar-23 19:24 37.704111 -122.147552 203 1355ft 159kts
02-Mar-23 19:25 37.682617 -122.184269 277 631ft 124kts
02-Mar-23 19:26 37.704865 -122.219360 310 18ft 108kts
02-Mar-23 19:27 37.711461 -122.225458 126 16ft 7kts
02-Mar-23 19:28 37.712425 -122.222923 39 17ft 15kts
02-Mar-23 19:29 37.710917 -122.218900 130 14ft 15kts
02-Mar-23 19:30 37.709701 -122.215057 36 14ft 11kts
02-Mar-23 19:31 37.711565 -122.214373 307 14ft 1kts
02-Mar-23 19:32 37.711584 -122.214404 307 14ft 0kts
02-Mar-23 19:33 37.711584 -122.214404 307 14ft 0kts
02-Mar-23 19:34 37.711584 -122.214404 307 14ft 0kts
02-Mar-23 19:35 37.711584 -122.214404 307 14ft 0kts

Navigation Log

Ident Type
Flight plan parsing failed, navigation log unavailable